Harman, Virginia
Current Conditions -  °F | °C
As of 7:15 AM on Thursday 29 Jan 2015 (Local Time) from KJFZ Reporting Station
Clear Clear  
Wind Chill: 32°   Ceiling: Unl
Heat Index: 32°   Visibility: 10mi
Dew Point: 12°   Wind: 3mph
Humidity: 45%   Direction: 290°WNW
Pressure: 30.11"   Gusts: NA
Location:  37.29°N, 82.2°W
Report Text: KJFZ 291215Z AUTO 29003KT 10SM CLR 00/M11 A3011 RMK AO2 T10011109
Loading
Personal Weather Stations






























Interactive Weather Map New forecast layout! Learn more

10-Day Weather Forecast

Advertisements
Track Severe Weather on mobile